METAR AND TAF INFORMATION
METAR FOR SARC
ADDS - METARS form results

(0119 UTC 21 March 2019)
Data provider http://aviationweather.gov/metar/data/
 
METAR text: SARC 210100Z 16006KT 8000 NSC 18/14 Q1018
Conditions at: SARC (CORRIENTES AIRPO, AR) observed 0100 UTC 21 March 2019
Temperature: 18.0°C (64°F)
Dewpoint: 14.0°C (57°F) [RH = 77%]
Pressure (altimeter): 30.06 inches Hg (1018.0 mb)
Winds: from the SSE (160 degrees) at 7 MPH (6 knots; 3.1 m/s)
Visibility: 5 miles ( 8 km)
Ceiling: at least 12,000 feet AGL
Clouds: sky clear below 12,000 feet AGL
Weather: no significant weather observed at this time

 AIRPORT MAP

 RUNWAY INFORMATION

 AIRPORT FREQUENCIES
Type TWR Name TWR Frequency 118.3 MHZ

 AIRPORT NEAR NAVIGATION AIDS
Type NDB Name Corrientes Frequency 305 KHZ
Type VOR-DME Name Corrientes Frequency 115400 KHZ



Powered by Virtual Airlines Manager [v2.6.2]